Time;durP1;ratioP1;P1;durP2;ratioP2;P2;SDS_P1;SDS_P2;PMS_P1;PMS_P2;Temp;Humidity;BMP_temperature;BMP_pressure;BME280_temperature;BME280_humidity;BME280_pressure;Samples;Min_cycle;Max_cycle;Signal;HPM_P1;HPM_P2
2023/08/20 00:01:58;;;;;;;5.10;3.63;;;;;19.40;101564.00;;;;5017099;28;20238;-69
2023/08/20 00:04:49;;;;;;;7.90;4.07;;;;;19.30;101566.00;;;;5024080;28;20249;-68
2023/08/20 00:07:36;;;;;;;6.87;4.37;;;;;19.30;101568.00;;;;5032104;28;20356;-68
2023/08/20 00:10:22;;;;;;;8.70;4.13;;;;;19.30;101573.00;;;;5015853;28;20297;-68
2023/08/20 00:13:09;;;;;;;5.20;3.87;;;;;19.30;101567.00;;;;5023395;28;20222;-68
2023/08/20 00:15:56;;;;;;;6.97;4.30;;;;;19.30;101575.00;;;;5019021;28;20235;-69
2023/08/20 00:18:44;;;;;;;5.40;3.73;;;;;19.20;101570.00;;;;5024983;28;20453;-69
2023/08/20 00:21:31;;;;;;;11.40;4.20;;;;;19.30;101578.00;;;;5034451;28;20233;-69
2023/08/20 00:24:18;;;;;;;7.53;4.93;;;;;19.30;101565.00;;;;5022475;28;20237;-68
2023/08/20 00:27:05;;;;;;;8.43;4.80;;;;;19.20;101556.00;;;;5024189;28;20602;-69
2023/08/20 00:29:51;;;;;;;11.33;4.63;;;;;19.20;101571.00;;;;5024310;28;20248;-68
2023/08/20 00:32:38;;;;;;;7.33;4.20;;;;;19.20;101564.00;;;;5021490;28;20328;-68
2023/08/20 00:35:26;;;;;;;6.47;4.30;;;;;19.20;101569.00;;;;5016936;28;20236;-68
2023/08/20 00:38:12;;;;;;;6.17;4.40;;;;;19.20;101569.00;;;;5019188;28;20315;-68
2023/08/20 00:40:59;;;;;;;5.83;4.23;;;;;19.10;101568.00;;;;5021981;28;20229;-68
2023/08/20 00:43:45;;;;;;;5.93;4.17;;;;;19.10;101569.00;;;;5017459;28;20266;-68
2023/08/20 00:46:32;;;;;;;10.93;4.23;;;;;19.10;101572.00;;;;5032879;28;20226;-68
2023/08/20 00:49:19;;;;;;;7.40;3.73;;;;;19.00;101561.00;;;;5018932;28;20257;-69
2023/08/20 00:52:09;;;;;;;14.20;4.80;;;;;19.00;101563.00;;;;5016014;28;20275;-68
2023/08/20 00:54:55;;;;;;;6.97;4.53;;;;;19.10;101565.00;;;;5014477;28;20283;-69
2023/08/20 00:57:43;;;;;;;5.03;4.20;;;;;19.00;101568.00;;;;5017887;28;20238;-68
2023/08/20 01:00:29;;;;;;;7.40;4.63;;;;;19.00;101561.00;;;;5018333;28;20229;-69
2023/08/20 01:03:15;;;;;;;6.73;4.80;;;;;19.00;101565.00;;;;5018373;28;20531;-68
2023/08/20 01:06:10;;;;;;;7.57;4.03;;;;;19.00;101565.00;;;;5014518;28;20227;-68
2023/08/20 01:09:06;;;;;;;6.40;4.60;;;;;18.90;101567.00;;;;5026147;28;20850;-68
2023/08/20 01:11:57;;;;;;;8.13;4.50;;;;;18.90;101565.00;;;;5020160;28;20233;-68
2023/08/20 01:14:43;;;;;;;7.50;4.50;;;;;18.90;101565.00;;;;5047878;28;20220;-68
2023/08/20 01:17:30;;;;;;;6.77;4.40;;;;;18.90;101565.00;;;;5015424;28;20233;-68
2023/08/20 01:20:16;;;;;;;9.13;4.50;;;;;18.80;101548.00;;;;5018072;28;20357;-68
2023/08/20 01:23:28;;;;;;;7.17;4.40;;;;;18.80;101562.00;;;;5019607;28;20311;-69
2023/08/20 01:26:31;;;;;;;6.97;4.27;;;;;18.80;101569.00;;;;5022563;28;20327;-69
2023/08/20 01:29:19;;;;;;;8.83;4.67;;;;;18.90;101574.00;;;;5020516;28;20291;-69
2023/08/20 01:32:06;;;;;;;7.47;4.90;;;;;18.80;101583.00;;;;5025923;28;20233;-69
2023/08/20 01:34:53;;;;;;;6.03;4.67;;;;;18.80;101585.00;;;;5023259;28;20396;-69
2023/08/20 01:37:39;;;;;;;6.53;4.93;;;;;18.80;101575.00;;;;5040009;28;20311;-68
2023/08/20 01:40:26;;;;;;;10.73;4.87;;;;;18.80;101585.00;;;;5041908;28;21025;-68
2023/08/20 01:43:12;;;;;;;8.87;4.90;;;;;18.80;101585.00;;;;5047266;28;20224;-68
2023/08/20 01:46:00;;;;;;;7.03;4.57;;;;;18.80;101594.00;;;;5047820;28;20227;-69
2023/08/20 01:48:46;;;;;;;10.67;4.97;;;;;18.70;101583.00;;;;5046997;28;20935;-68
2023/08/20 01:51:33;;;;;;;7.53;4.90;;;;;18.70;101594.00;;;;5037908;28;20240;-68
2023/08/20 01:54:19;;;;;;;9.77;4.97;;;;;18.70;101594.00;;;;5044206;28;20231;-69
2023/08/20 01:57:06;;;;;;;7.03;4.73;;;;;18.70;101591.00;;;;5042718;28;20225;-68
2023/08/20 01:59:52;;;;;;;8.83;5.23;;;;;18.70;101579.00;;;;5042399;28;20878;-69
2023/08/20 02:02:41;;;;;;;11.77;5.77;;;;;18.70;101573.00;;;;5038983;28;20232;-69
2023/08/20 02:05:27;;;;;;;7.23;5.07;;;;;18.70;101582.00;;;;5043448;28;20792;-67
2023/08/20 02:08:14;;;;;;;7.83;5.37;;;;;18.60;101589.00;;;;5036773;28;20237;-67
2023/08/20 02:11:02;;;;;;;11.87;6.33;;;;;18.70;101586.00;;;;5044176;28;20236;-67
2023/08/20 02:13:48;;;;;;;13.90;5.60;;;;;18.70;101588.00;;;;5033850;28;20233;-69
2023/08/20 02:16:35;;;;;;;12.10;5.67;;;;;18.60;101592.00;;;;5044407;28;20224;-67
2023/08/20 02:19:23;;;;;;;9.20;5.50;;;;;18.60;101603.00;;;;5044306;28;20277;-68
2023/08/20 02:22:09;;;;;;;9.80;6.50;;;;;18.60;101606.00;;;;5039746;28;20704;-67
2023/08/20 02:24:56;;;;;;;8.03;5.70;;;;;18.60;101608.00;;;;5030895;28;20236;-70
2023/08/20 02:27:42;;;;;;;9.53;5.60;;;;;18.60;101604.00;;;;5029417;28;20315;-69
2023/08/20 02:30:28;;;;;;;7.93;5.47;;;;;18.60;101613.00;;;;5021833;28;20240;-70
2023/08/20 02:33:15;;;;;;;10.90;6.50;;;;;18.60;101613.00;;;;5018388;28;20752;-69
2023/08/20 02:36:03;;;;;;;8.63;5.97;;;;;18.60;101619.00;;;;5023148;28;20233;-69
2023/08/20 02:38:51;;;;;;;12.77;6.10;;;;;18.60;101620.00;;;;5018836;28;20357;-69
2023/08/20 02:41:37;;;;;;;10.10;6.77;;;;;18.60;101622.00;;;;5023591;28;20257;-69
2023/08/20 02:44:23;;;;;;;9.90;6.60;;;;;18.60;101636.00;;;;5021774;28;20332;-70
2023/08/20 02:47:10;;;;;;;9.33;6.10;;;;;18.60;101646.00;;;;5025140;28;20303;-69
2023/08/20 02:49:56;;;;;;;6.93;5.57;;;;;18.60;101640.00;;;;5025097;28;20233;-69
2023/08/20 02:52:45;;;;;;;11.33;5.47;;;;;18.70;101635.00;;;;5034657;28;20281;-69
2023/08/20 02:55:33;;;;;;;8.77;6.07;;;;;18.60;101640.00;;;;5027711;28;20331;-69
2023/08/20 02:58:19;;;;;;;9.30;6.07;;;;;18.60;101637.00;;;;5025067;28;20299;-70
2023/08/20 03:01:06;;;;;;;11.83;6.33;;;;;18.60;101632.00;;;;5025944;28;20234;-69
2023/08/20 03:03:52;;;;;;;14.17;6.50;;;;;18.60;101632.00;;;;5025876;28;20229;-69
2023/08/20 03:06:39;;;;;;;9.33;6.17;;;;;18.70;101637.00;;;;5021044;28;20229;-69
2023/08/20 03:09:27;;;;;;;11.83;6.40;;;;;18.60;101628.00;;;;5017680;28;20229;-69
2023/08/20 03:12:13;;;;;;;10.27;6.77;;;;;18.60;101620.00;;;;5025505;28;20221;-69
2023/08/20 03:15:00;;;;;;;11.07;6.07;;;;;18.60;101606.00;;;;5025004;28;20303;-69
2023/08/20 03:17:47;;;;;;;10.17;6.47;;;;;18.60;101604.00;;;;5025331;28;20233;-68
2023/08/20 03:20:34;;;;;;;13.10;6.40;;;;;18.60;101602.00;;;;5023175;28;20297;-69
2023/08/20 03:23:20;;;;;;;12.93;6.90;;;;;18.60;101604.00;;;;5018750;28;20226;-70
2023/08/20 03:26:08;;;;;;;11.63;6.80;;;;;18.60;101603.00;;;;5018597;28;20251;-69
2023/08/20 03:28:55;;;;;;;12.80;7.03;;;;;18.60;101602.00;;;;5024537;28;20608;-70
2023/08/20 03:31:41;;;;;;;13.37;7.37;;;;;18.60;101605.00;;;;5015561;28;20254;-69
2023/08/20 03:34:28;;;;;;;14.37;6.40;;;;;18.60;101603.00;;;;5013354;28;20236;-69
2023/08/20 03:37:14;;;;;;;12.60;5.67;;;;;18.60;101604.00;;;;5021453;28;20224;-69
2023/08/20 03:40:01;;;;;;;12.27;6.47;;;;;18.50;101607.00;;;;5027439;28;20242;-68
2023/08/20 03:42:49;;;;;;;10.37;5.83;;;;;18.50;101609.00;;;;5033848;28;20582;-69
2023/08/20 03:45:36;;;;;;;8.90;5.70;;;;;18.50;101600.00;;;;5032303;28;20232;-69
2023/08/20 03:48:22;;;;;;;11.47;6.07;;;;;18.40;101603.00;;;;5018183;28;20861;-70
2023/08/20 03:51:09;;;;;;;10.10;6.50;;;;;18.40;101603.00;;;;5021853;28;20241;-68
2023/08/20 03:53:55;;;;;;;10.17;6.70;;;;;18.40;101612.00;;;;5025545;28;20232;-68
2023/08/20 03:56:41;;;;;;;12.30;6.93;;;;;18.40;101620.00;;;;5036921;28;20314;-69
2023/08/20 03:59:30;;;;;;;10.33;7.23;;;;;18.40;101615.00;;;;5042415;28;20244;-69
2023/08/20 04:02:17;;;;;;;14.97;7.40;;;;;18.40;101614.00;;;;5042561;28;20342;-69
2023/08/20 04:05:05;;;;;;;14.17;7.17;;;;;18.40;101609.00;;;;5042073;28;20343;-70
2023/08/20 04:07:51;;;;;;;12.07;7.50;;;;;18.40;101619.00;;;;5033136;28;20236;-68
2023/08/20 04:10:43;;;;;;;17.13;7.30;;;;;18.40;101626.00;;;;5049331;28;20744;-70
2023/08/20 04:13:30;;;;;;;14.20;6.90;;;;;18.30;101621.00;;;;5043010;28;20233;-69
2023/08/20 04:16:17;;;;;;;11.97;7.83;;;;;18.30;101624.00;;;;5041087;28;20226;-69
2023/08/20 04:19:04;;;;;;;11.60;7.27;;;;;18.30;101626.00;;;;5042087;28;20233;-69
2023/08/20 04:21:51;;;;;;;12.27;6.93;;;;;18.30;101630.00;;;;5037869;28;20267;-68
2023/08/20 04:24:38;;;;;;;11.37;6.80;;;;;18.30;101636.00;;;;5034348;28;20735;-70
2023/08/20 04:27:24;;;;;;;16.03;7.50;;;;;18.20;101638.00;;;;5023294;28;20241;-69
2023/08/20 04:30:12;;;;;;;13.33;7.13;;;;;18.30;101646.00;;;;5024952;28;20313;-69
2023/08/20 04:33:00;;;;;;;13.93;6.57;;;;;18.30;101652.00;;;;5021481;28;20233;-69
2023/08/20 04:35:51;;;;;;;13.73;7.60;;;;;18.30;101651.00;;;;5035723;28;20287;-69
2023/08/20 04:38:37;;;;;;;10.93;7.10;;;;;18.30;101650.00;;;;5025371;28;20233;-69
2023/08/20 04:41:24;;;;;;;10.23;6.67;;;;;18.40;101647.00;;;;5024823;28;20361;-69
2023/08/20 04:44:10;;;;;;;15.63;7.00;;;;;18.50;101646.00;;;;5022499;28;20324;-69
2023/08/20 04:46:57;;;;;;;13.60;7.50;;;;;18.50;101646.00;;;;5016631;28;20738;-69
2023/08/20 04:49:45;;;;;;;14.50;7.63;;;;;18.60;101646.00;;;;5019530;28;20879;-70
2023/08/20 04:52:31;;;;;;;12.83;6.80;;;;;18.70;101641.00;;;;5011898;28;20233;-68
2023/08/20 04:55:18;;;;;;;12.80;7.00;;;;;18.80;101649.00;;;;5020746;28;20639;-69
2023/08/20 04:58:05;;;;;;;13.57;6.87;;;;;18.70;101643.00;;;;5020550;28;20311;-67
2023/08/20 05:00:51;;;;;;;9.53;6.87;;;;;18.80;101639.00;;;;5020576;28;20237;-69
2023/08/20 05:03:37;;;;;;;15.20;7.87;;;;;18.90;101654.00;;;;5022376;28;20233;-70
2023/08/20 05:06:25;;;;;;;14.93;8.27;;;;;18.90;101664.00;;;;5019735;28;20233;-69
2023/08/20 05:09:12;;;;;;;9.53;6.00;;;;;18.90;101666.00;;;;5022325;28;20232;-69
2023/08/20 05:11:59;;;;;;;8.13;5.80;;;;;18.90;101665.00;;;;5014993;28;20253;-68
2023/08/20 05:14:45;;;;;;;14.13;6.73;;;;;19.00;101663.00;;;;5031063;28;20730;-69
2023/08/20 05:17:32;;;;;;;14.20;6.70;;;;;19.00;101665.00;;;;5027249;28;20230;-70
2023/08/20 05:20:19;;;;;;;9.93;6.80;;;;;19.00;101658.00;;;;5024050;28;20275;-68
2023/08/20 05:23:06;;;;;;;10.93;6.87;;;;;19.10;101660.00;;;;5030254;28;20605;-68
2023/08/20 05:25:53;;;;;;;9.67;6.97;;;;;19.10;101662.00;;;;5031308;28;20747;-68
2023/08/20 05:28:39;;;;;;;11.37;7.10;;;;;19.10;101671.00;;;;5013905;28;20608;-66
2023/08/20 05:31:25;;;;;;;10.50;6.47;;;;;19.20;101666.00;;;;5032611;28;20372;-69
2023/08/20 05:34:13;;;;;;;12.07;7.33;;;;;19.20;101666.00;;;;5020859;28;20260;-68
2023/08/20 05:36:59;;;;;;;22.67;9.90;;;;;19.30;101658.00;;;;5012776;28;20283;-69
2023/08/20 05:39:47;;;;;;;28.93;11.27;;;;;19.40;101655.00;;;;5020960;28;20237;-69
2023/08/20 05:42:33;;;;;;;38.13;12.03;;;;;19.40;101653.00;;;;5019066;28;20354;-68
2023/08/20 05:45:20;;;;;;;31.90;12.20;;;;;19.50;101656.00;;;;5021259;28;20229;-69
2023/08/20 05:48:07;;;;;;;35.47;12.27;;;;;19.50;101662.00;;;;5025781;28;20241;-68
2023/08/20 05:50:53;;;;;;;47.83;13.80;;;;;19.60;101662.00;;;;5025072;28;20315;-69
2023/08/20 05:53:40;;;;;;;38.57;13.40;;;;;19.70;101649.00;;;;5023472;28;20234;-70
2023/08/20 05:56:28;;;;;;;44.90;14.67;;;;;19.70;101657.00;;;;5013814;28;20233;-69
2023/08/20 05:59:14;;;;;;;53.07;16.00;;;;;19.80;101662.00;;;;5020683;28;20253;-68
2023/08/20 06:02:02;;;;;;;49.30;17.23;;;;;19.90;101662.00;;;;5021164;28;20710;-70
2023/08/20 06:04:49;;;;;;;54.87;17.63;;;;;19.90;101662.00;;;;5020357;28;20584;-67
2023/08/20 06:07:35;;;;;;;58.03;20.13;;;;;20.00;101674.00;;;;5018652;28;20256;-68
2023/08/20 06:10:22;;;;;;;53.03;18.63;;;;;20.10;101670.00;;;;5023640;28;20594;-68
2023/08/20 06:13:09;;;;;;;47.57;16.20;;;;;20.20;101672.00;;;;5029158;28;20294;-68
2023/08/20 06:15:56;;;;;;;48.23;19.33;;;;;20.20;101675.00;;;;5026049;28;20233;-69
2023/08/20 06:18:42;;;;;;;69.90;22.70;;;;;20.30;101671.00;;;;5023212;28;20240;-69
2023/08/20 06:21:28;;;;;;;58.10;24.27;;;;;20.40;101676.00;;;;5027728;28;20745;-68
2023/08/20 06:24:15;;;;;;;70.83;26.47;;;;;20.50;101678.00;;;;5022511;28;20227;-66
2023/08/20 06:27:02;;;;;;;66.67;28.13;;;;;20.60;101674.00;;;;5025852;28;20244;-67
2023/08/20 06:29:50;;;;;;;76.30;27.43;;;;;20.60;101672.00;;;;5027377;28;20274;-68
2023/08/20 06:32:36;;;;;;;60.40;24.47;;;;;20.60;101668.00;;;;5020279;28;20307;-67
2023/08/20 06:35:23;;;;;;;60.13;24.63;;;;;20.60;101672.00;;;;5025377;28;20239;-67
2023/08/20 06:38:09;;;;;;;65.40;27.27;;;;;20.70;101682.00;;;;5024630;28;20268;-68
2023/08/20 06:40:57;;;;;;;60.17;28.17;;;;;20.70;101685.00;;;;5024727;28;20412;-67
2023/08/20 06:43:43;;;;;;;57.93;27.63;;;;;20.80;101682.00;;;;5018363;28;20630;-67
2023/08/20 06:46:30;;;;;;;47.93;22.13;;;;;20.80;101687.00;;;;5029323;28;20233;-68
2023/08/20 06:49:17;;;;;;;61.23;26.07;;;;;20.80;101682.00;;;;5025040;28;20268;-68
2023/08/20 06:52:03;;;;;;;62.83;27.73;;;;;20.90;101680.00;;;;5029978;28;20732;-68
2023/08/20 06:54:49;;;;;;;63.43;27.60;;;;;21.00;101688.00;;;;5034126;28;20236;-68
2023/08/20 06:57:36;;;;;;;55.27;24.40;;;;;21.00;101688.00;;;;5030729;28;20722;-69
2023/08/20 07:00:23;;;;;;;56.80;26.33;;;;;21.10;101690.00;;;;5029407;28;20384;-68
2023/08/20 07:03:10;;;;;;;54.27;25.90;;;;;21.20;101694.00;;;;5026704;28;20232;-68
2023/08/20 07:05:57;;;;;;;57.03;26.47;;;;;21.20;101694.00;;;;5023555;28;20244;-67
2023/08/20 07:08:43;;;;;;;60.37;27.03;;;;;21.20;101698.00;;;;5020878;28;20239;-68
2023/08/20 07:11:30;;;;;;;60.50;26.60;;;;;21.30;101683.00;;;;5013714;28;20265;-68
2023/08/20 07:14:16;;;;;;;57.17;26.60;;;;;21.30;101684.00;;;;5024620;28;20626;-67
2023/08/20 07:17:03;;;;;;;52.00;24.50;;;;;21.40;101689.00;;;;5010522;28;20715;-67
2023/08/20 07:19:51;;;;;;;52.80;25.70;;;;;21.40;101693.00;;;;5021635;28;20356;-67
2023/08/20 07:22:38;;;;;;;50.87;25.53;;;;;21.40;101685.00;;;;5026301;28;20240;-67
2023/08/20 07:25:24;;;;;;;53.63;25.77;;;;;21.50;101685.00;;;;5021110;28;20232;-67
2023/08/20 07:28:11;;;;;;;52.03;24.33;;;;;21.50;101691.00;;;;5023214;28;20328;-68
2023/08/20 07:30:58;;;;;;;52.37;25.50;;;;;21.50;101688.00;;;;5036305;28;20603;-67
2023/08/20 07:33:47;;;;;;;49.80;25.17;;;;;21.60;101691.00;;;;5028440;28;20292;-70
2023/08/20 07:36:35;;;;;;;50.17;25.00;;;;;21.60;101690.00;;;;5019330;28;20295;-66
2023/08/20 07:39:21;;;;;;;51.20;25.00;;;;;21.70;101688.00;;;;5021450;28;20354;-69
2023/08/20 07:42:08;;;;;;;51.67;26.70;;;;;21.80;101705.00;;;;5029646;28;20225;-70
2023/08/20 07:44:54;;;;;;;51.30;25.57;;;;;21.90;101700.00;;;;5021043;28;20221;-68
2023/08/20 07:47:41;;;;;;;53.33;26.77;;;;;21.90;101694.00;;;;5017743;28;20262;-67
2023/08/20 07:50:27;;;;;;;52.77;26.27;;;;;21.90;101695.00;;;;5031956;28;20237;-68
2023/08/20 07:53:15;;;;;;;48.37;25.47;;;;;21.90;101698.00;;;;5032717;28;20262;-67
2023/08/20 07:56:02;;;;;;;52.47;25.90;;;;;22.00;101694.00;;;;5028771;28;20244;-66
2023/08/20 07:58:48;;;;;;;54.57;26.30;;;;;22.10;101694.00;;;;5031372;28;20291;-66
2023/08/20 08:01:37;;;;;;;51.90;26.67;;;;;22.20;101701.00;;;;5024735;28;20281;-66
2023/08/20 08:04:23;;;;;;;57.97;27.27;;;;;22.30;101697.00;;;;5024806;28;20759;-66
2023/08/20 08:07:11;;;;;;;57.13;27.83;;;;;22.40;101698.00;;;;5025300;28;20226;-67
2023/08/20 08:09:58;;;;;;;54.97;27.37;;;;;22.30;101700.00;;;;5021585;28;20241;-68
2023/08/20 08:12:45;;;;;;;53.50;27.10;;;;;22.40;101703.00;;;;5024558;28;20233;-66
2023/08/20 08:15:31;;;;;;;51.93;25.93;;;;;22.50;101698.00;;;;5024795;28;20229;-70
2023/08/20 08:18:18;;;;;;;54.90;26.97;;;;;22.50;101704.00;;;;5027673;28;20287;-68
2023/08/20 08:21:05;;;;;;;52.70;27.57;;;;;22.50;101712.00;;;;5025291;28;20229;-69
2023/08/20 08:23:51;;;;;;;60.07;28.27;;;;;22.50;101706.00;;;;5021451;28;20233;-69
2023/08/20 08:26:40;;;;;;;51.27;26.67;;;;;22.60;101708.00;;;;5025969;28;20935;-67
2023/08/20 08:29:26;;;;;;;53.10;26.93;;;;;22.80;101710.00;;;;5021959;28;20228;-70
2023/08/20 08:32:13;;;;;;;54.03;25.83;;;;;22.90;101711.00;;;;5039737;28;20598;-70
2023/08/20 08:34:59;;;;;;;51.67;27.17;;;;;23.10;101707.00;;;;5028193;28;20272;-70
2023/08/20 08:37:45;;;;;;;52.30;26.60;;;;;23.20;101709.00;;;;5024760;28;20359;-69
2023/08/20 08:40:32;;;;;;;50.97;25.33;;;;;23.30;101711.00;;;;5019217;28;20323;-69
2023/08/20 08:43:20;;;;;;;49.37;24.43;;;;;23.40;101717.00;;;;5021862;28;20232;-69
2023/08/20 08:46:09;;;;;;;48.47;24.80;;;;;23.40;101723.00;;;;5036654;28;20299;-69
2023/08/20 08:48:56;;;;;;;44.57;23.93;;;;;23.40;101720.00;;;;5025998;28;20256;-70
2023/08/20 08:51:45;;;;;;;44.93;23.33;;;;;23.40;101723.00;;;;5020671;28;20275;-69
2023/08/20 08:54:33;;;;;;;51.17;24.53;;;;;23.50;101718.00;;;;5020282;28;20233;-67
2023/08/20 08:57:20;;;;;;;43.60;23.27;;;;;23.60;101714.00;;;;5024557;28;20376;-69
2023/08/20 09:00:09;;;;;;;46.03;23.60;;;;;23.70;101720.00;;;;5025052;28;20256;-68
2023/08/20 09:02:56;;;;;;;46.60;23.33;;;;;23.80;101710.00;;;;5022807;28;20750;-68
2023/08/20 09:05:49;;;;;;;49.93;24.70;;;;;23.90;101717.00;;;;5023375;28;20229;-68
2023/08/20 09:08:35;;;;;;;41.00;22.30;;;;;24.10;101727.00;;;;5021598;28;20590;-70
2023/08/20 09:11:21;;;;;;;42.30;22.43;;;;;24.20;101717.00;;;;5026169;28;20454;-70
2023/08/20 09:14:08;;;;;;;39.07;21.40;;;;;24.40;101715.00;;;;5017431;28;20255;-68
2023/08/20 09:16:59;;;;;;;41.10;21.23;;;;;24.50;101720.00;;;;5020796;28;20288;-69
2023/08/20 09:19:46;;;;;;;35.83;19.27;;;;;24.60;101722.00;;;;5018482;28;20233;-69
2023/08/20 09:22:33;;;;;;;32.60;18.83;;;;;24.60;101718.00;;;;5030105;28;20228;-68
2023/08/20 09:25:19;;;;;;;33.57;18.47;;;;;24.70;101722.00;;;;5038156;28;20236;-68
2023/08/20 09:28:06;;;;;;;29.27;17.77;;;;;24.60;101721.00;;;;5022899;28;20241;-70
2023/08/20 09:30:56;;;;;;;36.45;21.05;;;;;24.40;101722.00;;;;5016134;28;20245;-67
2023/08/20 09:33:51;;;;;;;34.73;19.40;;;;;24.20;101718.00;;;;5039973;28;20315;-67
2023/08/20 09:36:38;;;;;;;37.60;20.00;;;;;24.20;101722.00;;;;5023853;28;20299;-70
2023/08/20 09:39:24;;;;;;;35.97;19.97;;;;;24.30;101714.00;;;;5027452;28;20301;-69
2023/08/20 09:42:12;;;;;;;36.33;20.23;;;;;24.50;101727.00;;;;5026333;28;20234;-70
2023/08/20 09:45:03;;;;;;;32.40;18.27;;;;;24.70;101721.00;;;;5022924;28;20636;-69
2023/08/20 09:47:50;;;;;;;25.47;15.80;;;;;24.90;101726.00;;;;5023283;28;20225;-70
2023/08/20 09:50:40;;;;;;;20.02;12.90;;;;;24.90;101724.00;;;;5020493;28;20225;-67
2023/08/20 09:53:34;;;;;;;19.95;12.68;;;;;24.80;101722.00;;;;5033050;28;20307;-68
2023/08/20 09:56:27;;;;;;;23.20;15.25;;;;;24.80;101721.00;;;;5022920;28;20225;-67
2023/08/20 09:59:17;;;;;;;22.48;14.35;;;;;25.00;101723.00;;;;5047934;28;20232;-69
2023/08/20 10:02:03;;;;;;;24.27;14.55;;;;;25.40;101716.00;;;;5020011;28;20241;-70
2023/08/20 10:04:53;;;;;;;22.25;12.55;;;;;25.70;101717.00;;;;5029571;28;20669;-68
2023/08/20 10:07:42;;;;;;;16.88;10.77;;;;;26.10;101724.00;;;;5020941;28;20233;-66
2023/08/20 10:10:30;;;;;;;14.02;10.27;;;;;26.30;101724.00;;;;5023737;28;20707;-67
2023/08/20 10:13:18;;;;;;;15.32;9.07;;;;;26.30;101716.00;;;;5024726;28;20348;-66
2023/08/20 10:16:05;;;;;;;13.63;9.00;;;;;26.50;101715.00;;;;5030111;28;20229;-67
2023/08/20 10:18:51;;;;;;;13.07;8.25;;;;;26.50;101711.00;;;;5020920;28;20241;-67
2023/08/20 10:21:45;;;;;;;11.45;8.45;;;;;26.60;101716.00;;;;5025806;28;20221;-67
2023/08/20 10:24:47;;;;;;;12.63;8.98;;;;;26.60;101715.00;;;;5026616;28;20226;-67
2023/08/20 10:27:36;;;;;;;12.88;9.55;;;;;26.50;101719.00;;;;5026504;28;20686;-67
2023/08/20 10:30:26;;;;;;;13.95;9.25;;;;;26.70;101713.00;;;;5025335;28;20308;-68
2023/08/20 10:33:14;;;;;;;13.88;10.27;;;;;26.90;101717.00;;;;5036789;28;20356;-66
2023/08/20 10:36:08;;;;;;;11.48;8.68;;;;;27.00;101718.00;;;;5038389;28;20355;-67
2023/08/20 10:38:56;;;;;;;14.27;9.68;;;;;27.10;101715.00;;;;5029527;28;20232;-67
2023/08/20 10:41:44;;;;;;;13.27;10.27;;;;;26.90;101720.00;;;;5025678;28;20225;-67
2023/08/20 10:45:00;;;;;;;14.65;10.35;;;;;26.80;101714.00;;;;5026879;28;20230;-66
2023/08/20 10:47:48;;;;;;;14.32;10.80;;;;;27.10;101713.00;;;;5022474;28;20233;-67
2023/08/20 10:50:36;;;;;;;13.38;10.30;;;;;27.20;101710.00;;;;5025148;28;20553;-66
2023/08/20 10:53:23;;;;;;;14.15;9.80;;;;;27.10;101725.00;;;;5031710;28;20307;-68
2023/08/20 10:56:15;;;;;;;14.77;10.27;;;;;27.00;101723.00;;;;5049655;28;20380;-66
2023/08/20 10:59:07;;;;;;;15.88;11.70;;;;;26.80;101739.00;;;;5014708;28;20234;-67
2023/08/20 11:01:56;;;;;;;14.43;11.38;;;;;26.60;101727.00;;;;5017618;28;20603;-67
2023/08/20 11:04:43;;;;;;;15.38;11.57;;;;;26.30;101736.00;;;;5019061;28;20699;-67
2023/08/20 11:07:31;;;;;;;17.17;12.48;;;;;26.10;101743.00;;;;5012489;28;20284;-66
2023/08/20 11:10:18;;;;;;;15.52;11.65;;;;;26.00;101732.00;;;;5019466;28;20317;-68
2023/08/20 11:13:05;;;;;;;14.52;11.60;;;;;26.10;101743.00;;;;5027038;28;20245;-68
2023/08/20 11:15:53;;;;;;;18.40;11.98;;;;;26.10;101737.00;;;;5019662;28;20229;-67
2023/08/20 11:18:40;;;;;;;18.90;12.20;;;;;26.10;101735.00;;;;5006725;28;20770;-69
2023/08/20 11:21:29;;;;;;;17.25;11.27;;;;;26.40;101737.00;;;;5025137;28;20229;-67
2023/08/20 11:24:15;;;;;;;14.55;10.82;;;;;26.90;101723.00;;;;5017638;28;20604;-68
2023/08/20 11:27:02;;;;;;;11.30;8.90;;;;;27.30;101729.00;;;;5040628;28;20228;-68
2023/08/20 11:29:48;;;;;;;12.23;8.70;;;;;27.30;101727.00;;;;5036563;28;20310;-67
2023/08/20 11:32:37;;;;;;;12.00;9.10;;;;;27.20;101731.00;;;;5023033;28;20626;-68
2023/08/20 11:35:23;;;;;;;11.15;9.52;;;;;26.90;101720.00;;;;5016110;28;21062;-68
2023/08/20 11:38:10;;;;;;;10.65;8.88;;;;;27.00;101724.00;;;;5024983;28;20233;-67
2023/08/20 11:40:59;;;;;;;9.98;8.75;;;;;27.40;101725.00;;;;5023329;28;20906;-67
2023/08/20 11:43:46;;;;;;;10.80;8.45;;;;;27.80;101721.00;;;;5022844;28;20300;-68
2023/08/20 11:46:33;;;;;;;10.75;8.50;;;;;28.20;101720.00;;;;5017377;28;20233;-71
2023/08/20 11:49:28;;;;;;;8.88;7.97;;;;;28.60;101717.00;;;;5014912;28;20788;-67
2023/08/20 11:52:17;;;;;;;12.55;7.90;;;;;28.90;101718.00;;;;5023463;28;20234;-69
2023/08/20 11:55:04;;;;;;;9.20;7.45;;;;;29.10;101705.00;;;;5022237;28;20237;-70
2023/08/20 11:57:52;;;;;;;9.57;7.60;;;;;29.20;101722.00;;;;5014174;28;20319;-71
2023/08/20 12:00:39;;;;;;;10.40;7.93;;;;;29.10;101721.00;;;;5027295;28;20998;-71
2023/08/20 12:03:30;;;;;;;10.70;7.78;;;;;29.10;101722.00;;;;5030188;28;20245;-69
2023/08/20 12:06:24;;;;;;;9.02;8.07;;;;;29.00;101712.00;;;;5021341;28;20248;-70
2023/08/20 12:09:21;;;;;;;9.23;7.88;;;;;29.00;101720.00;;;;5019744;28;20241;-69
2023/08/20 12:12:08;;;;;;;9.50;7.60;;;;;29.10;101721.00;;;;5008589;28;21044;-69
2023/08/20 12:14:55;;;;;;;8.82;6.55;;;;;29.30;101713.00;;;;5028195;28;20244;-69
2023/08/20 12:17:41;;;;;;;7.18;6.53;;;;;29.40;101717.00;;;;5014027;28;20229;-69
2023/08/20 12:20:29;;;;;;;8.55;6.05;;;;;29.60;101710.00;;;;5021105;28;20232;-69
2023/08/20 12:23:18;;;;;;;7.65;5.70;;;;;29.70;101725.00;;;;5021757;28;20726;-71
2023/08/20 12:26:04;;;;;;;7.78;5.97;;;;;29.60;101717.00;;;;5016224;28;20280;-70
2023/08/20 12:28:51;;;;;;;8.07;6.18;;;;;29.60;101717.00;;;;5020051;28;20671;-67
2023/08/20 12:31:37;;;;;;;7.60;6.13;;;;;29.60;101719.00;;;;5018538;28;20236;-65
2023/08/20 12:34:25;;;;;;;8.88;7.15;;;;;29.60;101708.00;;;;5033282;28;20261;-66
2023/08/20 12:37:12;;;;;;;10.50;6.47;;;;;29.60;101715.00;;;;5033215;28;20329;-65
2023/08/20 12:40:00;;;;;;;7.65;6.35;;;;;29.70;101707.00;;;;5033578;28;20942;-65
2023/08/20 12:42:47;;;;;;;7.18;6.47;;;;;29.70;101705.00;;;;5027549;28;20797;-67
2023/08/20 12:45:33;;;;;;;5.78;4.53;;;;;29.60;101705.00;;;;5023387;28;20241;-67
2023/08/20 12:48:20;;;;;;;6.72;5.10;;;;;29.70;101701.00;;;;5021790;28;20233;-68
2023/08/20 12:51:07;;;;;;;9.52;4.03;;;;;29.70;101709.00;;;;5022938;28;20738;-67
2023/08/20 12:53:54;;;;;;;8.75;4.43;;;;;29.70;101697.00;;;;5017900;28;20233;-67
2023/08/20 12:56:41;;;;;;;5.40;3.40;;;;;29.90;101690.00;;;;5016030;28;20388;-68
2023/08/20 12:59:27;;;;;;;4.55;2.67;;;;;29.90;101703.00;;;;5029458;28;20618;-66
2023/08/20 13:02:13;;;;;;;5.15;2.97;;;;;30.10;101700.00;;;;5031968;28;20229;-67
2023/08/20 13:05:01;;;;;;;4.75;3.15;;;;;30.00;101691.00;;;;5019073;28;20234;-67
2023/08/20 13:07:47;;;;;;;5.75;2.92;;;;;30.10;101693.00;;;;5022152;28;20736;-67
2023/08/20 13:10:34;;;;;;;6.13;2.70;;;;;30.30;101690.00;;;;5028758;28;20368;-69
2023/08/20 13:13:23;;;;;;;6.10;2.40;;;;;30.30;101690.00;;;;5024330;28;20296;-68
2023/08/20 13:16:11;;;;;;;4.25;2.40;;;;;30.40;101691.00;;;;5027243;28;20287;-66
2023/08/20 13:18:57;;;;;;;4.88;2.20;;;;;30.50;101697.00;;;;5024119;28;20307;-67
2023/08/20 13:21:44;;;;;;;7.18;2.33;;;;;30.70;101696.00;;;;5021149;28;20229;-67
2023/08/20 13:24:31;;;;;;;4.70;2.50;;;;;30.80;101699.00;;;;5017306;28;20236;-67
2023/08/20 13:27:18;;;;;;;6.75;2.65;;;;;30.80;101696.00;;;;5025389;28;20833;-69
2023/08/20 13:30:08;;;;;;;4.53;2.20;;;;;30.80;101698.00;;;;5017866;28;20369;-69
2023/08/20 13:32:54;;;;;;;5.80;2.40;;;;;30.90;101698.00;;;;5016849;28;20245;-67
2023/08/20 13:35:41;;;;;;;5.90;2.30;;;;;30.90;101694.00;;;;5022550;28;20230;-69
2023/08/20 13:38:28;;;;;;;3.75;2.45;;;;;30.80;101698.00;;;;5024726;28;20604;-67